North Woodmere, New York
Current Conditions -  °F | °C
As of 12:51 AM on Saturday 20 Dec 2014 (Local Time) from KJFK Reporting Station
Overcast Overcast  
Wind Chill: 25°   Ceiling: 2900
Heat Index: 33°   Visibility: 10mi
Dew Point: 21°   Wind: 9mph
Humidity: 61%   Direction: 330°NNW
Pressure: 30.2"   Gusts: NA
Location:  40.6532°N, 73.7131°W
Report Text: KJFK 200551Z 33008KT 10SM OVC029 01/M06 A3020 RMK AO2 SLP226 T00061061 10011 20000 50008 $
Loading
Personal Weather Stations






























Interactive Weather Map New forecast layout! Learn more

10-Day Weather Forecast

Advertisements
Track Severe Weather on mobile